Metar Aviation Weather Data ENAL

16°C Temp
10°C Dewpoint
% Humidity
Temperature
8 KM/H
5 MPH
4 KTS
120°
East South
East

Wind Speed
Clear
Conditions
Pressure 1018.92 (hPa) - 30.09 (in)
Visibility 6.2 (mi) - 10 (km)

Current Conditions
ENAL
Metar :ENAL 150550Z 12004KT CAVOK 16/10 Q1019
Sat 15th June 07:50 am

  Metar Aviation API Data Provided by https://www.checkwx.com/ PHP scripts by weather34.com ©2019